Time;durP1;ratioP1;P1;durP2;ratioP2;P2;SDS_P1;SDS_P2;PMS_P1;PMS_P2;Temp;Humidity;BMP_temperature;BMP_pressure;BME280_temperature;BME280_humidity;BME280_pressure;Samples;Min_cycle;Max_cycle;Signal;HPM_P1;HPM_P2
2022/03/19 00:01:55;;;;;;;21.60;10.10;;;6.30;99.90;;;;;;5075788;28;20025;-82
2022/03/19 00:04:21;;;;;;;18.77;10.15;;;6.20;99.90;;;;;;5075359;28;20040;-80
2022/03/19 00:06:47;;;;;;;15.52;10.18;;;6.10;99.90;;;;;;5058658;28;20035;-84
2022/03/19 00:09:13;;;;;;;19.90;11.30;;;6.00;99.90;;;;;;5061622;28;20031;-84
2022/03/19 00:11:40;;;;;;;20.10;11.23;;;6.00;99.90;;;;;;5059698;28;20025;-84
2022/03/19 00:14:06;;;;;;;20.50;11.07;;;5.90;99.90;;;;;;5088035;22;20111;-76
2022/03/19 00:16:33;;;;;;;20.05;12.35;;;5.90;99.90;;;;;;5026494;28;20080;-77
2022/03/19 00:18:58;;;;;;;21.50;11.43;;;5.90;99.90;;;;;;5042642;28;20026;-77
2022/03/19 00:21:24;;;;;;;24.65;11.18;;;5.90;99.90;;;;;;5026189;28;20053;-76
2022/03/19 00:23:50;;;;;;;22.42;10.35;;;5.90;99.90;;;;;;5024296;28;20081;-77
2022/03/19 00:26:16;;;;;;;22.52;10.95;;;5.90;99.90;;;;;;5041035;28;20119;-77
2022/03/19 00:28:42;;;;;;;24.02;10.65;;;5.90;99.90;;;;;;5022446;28;20104;-76
2022/03/19 00:31:08;;;;;;;21.02;11.52;;;5.90;99.90;;;;;;5013780;28;20021;-77
2022/03/19 00:33:34;;;;;;;21.83;11.77;;;5.90;99.90;;;;;;5016541;28;20033;-77
2022/03/19 00:36:00;;;;;;;25.98;12.15;;;5.80;99.90;;;;;;5034439;28;20037;-75
2022/03/19 00:38:28;;;;;;;20.48;11.48;;;5.80;99.90;;;;;;5034279;28;20121;-76
2022/03/19 00:40:54;;;;;;;17.98;11.35;;;5.70;99.90;;;;;;5016483;28;20036;-76
2022/03/19 00:43:20;;;;;;;19.63;12.55;;;5.70;99.90;;;;;;5035081;28;20029;-75
2022/03/19 00:45:49;;;;;;;19.92;11.68;;;5.70;99.90;;;;;;5036821;28;20169;-78
2022/03/19 00:48:15;;;;;;;18.45;11.13;;;5.70;99.90;;;;;;5054143;28;20044;-76
2022/03/19 00:50:41;;;;;;;19.70;11.32;;;5.70;99.90;;;;;;5036208;28;20025;-76
2022/03/19 00:53:06;;;;;;;20.60;11.98;;;5.70;99.90;;;;;;5053787;28;20021;-76
2022/03/19 00:55:32;;;;;;;23.52;12.45;;;5.70;99.90;;;;;;5054029;28;20039;-76
2022/03/19 00:57:58;;;;;;;19.45;11.25;;;5.80;99.90;;;;;;5036081;28;20476;-78
2022/03/19 01:00:25;;;;;;;20.95;11.48;;;5.80;99.90;;;;;;5054363;28;20461;-76
2022/03/19 01:02:51;;;;;;;25.65;11.70;;;5.70;99.90;;;;;;5053527;28;20490;-76
2022/03/19 01:05:17;;;;;;;21.55;11.50;;;5.70;99.90;;;;;;5035625;28;20065;-76
2022/03/19 01:07:45;;;;;;;19.40;11.90;;;5.70;99.90;;;;;;5036064;28;20021;-78
2022/03/19 01:10:14;;;;;;;22.85;13.27;;;5.70;99.90;;;;;;5053837;28;20075;-76
2022/03/19 01:12:40;;;;;;;19.23;10.65;;;5.70;99.90;;;;;;5035640;28;20549;-77
2022/03/19 01:15:06;;;;;;;25.80;13.13;;;5.70;99.90;;;;;;5053764;28;20033;-79
2022/03/19 01:17:31;;;;;;;24.17;12.45;;;5.70;99.90;;;;;;5068153;28;20028;-77
2022/03/19 01:19:59;;;;;;;22.08;12.80;;;5.60;99.90;;;;;;5072456;28;20084;-77
2022/03/19 01:22:26;;;;;;;20.83;12.55;;;5.60;99.90;;;;;;5062405;28;20049;-77
2022/03/19 01:24:51;;;;;;;20.83;12.85;;;5.60;99.90;;;;;;5054173;28;20029;-77
2022/03/19 01:27:17;;;;;;;22.33;13.35;;;5.60;99.90;;;;;;5053710;28;20032;-76
2022/03/19 01:29:43;;;;;;;22.42;12.95;;;5.50;99.90;;;;;;5053364;28;20044;-76
2022/03/19 01:32:09;;;;;;;23.77;13.10;;;5.50;99.90;;;;;;5035985;28;20028;-76
2022/03/19 01:34:36;;;;;;;23.27;13.02;;;5.50;99.90;;;;;;5035600;28;20025;-77
2022/03/19 01:37:02;;;;;;;23.40;14.18;;;5.50;99.90;;;;;;5053168;28;20044;-76
2022/03/19 01:39:28;;;;;;;22.30;13.73;;;5.50;99.90;;;;;;5035400;28;20025;-77
2022/03/19 01:41:54;;;;;;;20.73;13.23;;;5.40;99.90;;;;;;5052883;28;20421;-76
2022/03/19 01:44:21;;;;;;;26.67;14.05;;;5.40;99.90;;;;;;5043280;28;20037;-76
2022/03/19 01:46:54;;;;;;;27.75;13.30;;;5.40;99.90;;;;;;5033367;28;20022;-76
2022/03/19 01:49:21;;;;;;;22.48;14.25;;;5.30;99.90;;;;;;5015314;28;20121;-76
2022/03/19 01:51:46;;;;;;;21.83;13.70;;;5.30;99.90;;;;;;5032803;28;20096;-77
2022/03/19 01:54:12;;;;;;;17.42;12.65;;;5.30;99.90;;;;;;5015090;28;20402;-76
2022/03/19 01:56:38;;;;;;;19.83;13.40;;;5.20;99.90;;;;;;5032688;28;20037;-76
2022/03/19 01:59:06;;;;;;;25.05;13.77;;;5.20;99.90;;;;;;5015085;28;20409;-76
2022/03/19 02:01:32;;;;;;;27.10;13.00;;;5.30;99.90;;;;;;5015790;28;20017;-77
2022/03/19 02:03:58;;;;;;;23.60;13.27;;;5.20;99.90;;;;;;5033418;28;20025;-76
2022/03/19 02:06:26;;;;;;;20.08;13.48;;;5.10;99.90;;;;;;5014868;28;20037;-76
2022/03/19 02:08:53;;;;;;;26.60;13.85;;;5.10;99.90;;;;;;5032609;28;20036;-77
2022/03/19 02:11:18;;;;;;;21.65;13.75;;;5.00;99.90;;;;;;5032741;28;20029;-77
2022/03/19 02:13:44;;;;;;;21.00;14.50;;;5.00;99.90;;;;;;5032628;28;20070;-77
2022/03/19 02:16:09;;;;;;;20.13;13.10;;;4.90;99.90;;;;;;5032645;28;20095;-76
2022/03/19 02:18:35;;;;;;;22.85;13.98;;;5.00;99.90;;;;;;5032339;28;20025;-75
2022/03/19 02:21:01;;;;;;;22.50;14.15;;;5.00;99.90;;;;;;5032763;28;20157;-77
2022/03/19 02:26:12;;;;;;;21.90;13.73;;;5.10;99.90;;;;;;5032885;28;20032;-79
2022/03/19 02:28:37;;;;;;;24.60;13.80;;;5.10;99.90;;;;;;5032966;28;20025;-77
2022/03/19 02:31:03;;;;;;;24.08;14.80;;;5.10;99.90;;;;;;5033208;28;20032;-76
2022/03/19 02:33:28;;;;;;;21.33;14.70;;;5.00;99.90;;;;;;5032323;28;20166;-76
2022/03/19 02:35:54;;;;;;;21.38;13.70;;;5.00;99.90;;;;;;5032851;28;20026;-77
2022/03/19 02:38:20;;;;;;;24.67;14.00;;;5.00;99.90;;;;;;5032589;28;20100;-75
2022/03/19 02:40:45;;;;;;;24.17;14.32;;;5.00;99.90;;;;;;5031958;28;20392;-76
2022/03/19 02:43:11;;;;;;;25.80;15.00;;;5.00;99.90;;;;;;5032644;28;20025;-77
2022/03/19 02:45:36;;;;;;;23.08;14.38;;;4.90;99.90;;;;;;5034090;28;20060;-76
2022/03/19 02:48:02;;;;;;;24.35;15.18;;;5.00;99.90;;;;;;5052241;28;20029;-77
2022/03/19 02:50:33;;;;;;;20.60;13.48;;;4.90;99.90;;;;;;5052609;28;20028;-78
2022/03/19 02:53:01;;;;;;;26.08;14.43;;;4.90;99.90;;;;;;5034946;28;20028;-77
2022/03/19 02:55:35;;;;;;;25.88;13.70;;;4.90;99.90;;;;;;5051451;28;20391;-76
2022/03/19 02:58:01;;;;;;;25.75;14.35;;;4.90;99.90;;;;;;5051980;28;20029;-76
2022/03/19 03:00:27;;;;;;;22.73;13.75;;;4.90;99.90;;;;;;5052141;28;20496;-77
2022/03/19 03:02:53;;;;;;;24.45;14.43;;;4.90;99.90;;;;;;5051705;28;20480;-77
2022/03/19 03:05:18;;;;;;;26.83;15.57;;;4.80;99.90;;;;;;5051554;28;20108;-77
2022/03/19 03:07:44;;;;;;;28.05;14.52;;;4.80;99.90;;;;;;5033302;28;20120;-77
2022/03/19 03:10:10;;;;;;;24.95;14.13;;;4.80;99.90;;;;;;5051498;28;20029;-77
2022/03/19 03:12:36;;;;;;;25.50;14.50;;;4.80;99.90;;;;;;5033466;28;20029;-76
2022/03/19 03:15:02;;;;;;;23.58;14.10;;;4.70;99.90;;;;;;5033622;28;20365;-78
2022/03/19 03:17:29;;;;;;;20.05;14.00;;;4.70;99.90;;;;;;5051860;28;20021;-76
2022/03/19 03:19:54;;;;;;;26.85;15.50;;;4.60;99.90;;;;;;5033660;28;20025;-76
2022/03/19 03:22:20;;;;;;;24.70;14.07;;;4.60;99.90;;;;;;5033407;28;20533;-76
2022/03/19 03:24:45;;;;;;;24.75;14.32;;;4.70;99.90;;;;;;5051493;28;20047;-75
2022/03/19 03:27:11;;;;;;;25.02;14.38;;;4.60;99.90;;;;;;5051370;28;20025;-78
2022/03/19 03:29:36;;;;;;;22.55;13.70;;;4.60;99.90;;;;;;5033545;28;20548;-77
2022/03/19 03:32:02;;;;;;;22.95;14.68;;;4.60;99.90;;;;;;5051588;28;20484;-76
2022/03/19 03:34:29;;;;;;;23.15;15.15;;;4.50;99.90;;;;;;5051200;28;20025;-77
2022/03/19 03:36:54;;;;;;;23.48;13.70;;;4.50;99.90;;;;;;5051124;28;20017;-77
2022/03/19 03:39:20;;;;;;;20.95;13.80;;;4.50;99.90;;;;;;5051545;28;20033;-76
2022/03/19 03:41:46;;;;;;;25.42;14.63;;;4.40;99.90;;;;;;5033579;28;20384;-76
2022/03/19 03:44:11;;;;;;;22.45;14.50;;;4.30;99.90;;;;;;5043031;28;20018;-76
2022/03/19 03:46:37;;;;;;;26.50;14.75;;;4.30;99.90;;;;;;5030984;28;20025;-76
2022/03/19 03:49:02;;;;;;;20.77;13.57;;;4.30;99.90;;;;;;5031133;28;20026;-76
2022/03/19 03:51:28;;;;;;;25.13;14.52;;;4.30;99.90;;;;;;5030874;28;20040;-77
2022/03/19 03:53:54;;;;;;;22.98;15.02;;;4.30;99.90;;;;;;5030879;28;20122;-77
2022/03/19 03:56:20;;;;;;;27.90;14.05;;;4.20;99.90;;;;;;5031065;28;20072;-76
2022/03/19 03:58:45;;;;;;;18.35;13.32;;;4.20;99.90;;;;;;5030822;28;20061;-78
2022/03/19 04:01:11;;;;;;;25.33;14.63;;;4.10;99.90;;;;;;5031339;28;20024;-78
2022/03/19 04:03:37;;;;;;;26.77;14.23;;;4.00;99.90;;;;;;5030983;28;20084;-78
2022/03/19 04:06:02;;;;;;;26.90;15.65;;;3.90;99.90;;;;;;5032039;28;20091;-77
2022/03/19 04:08:28;;;;;;;21.58;15.30;;;3.90;99.90;;;;;;5022116;28;20025;-76
2022/03/19 04:10:54;;;;;;;25.38;15.27;;;3.90;99.90;;;;;;5054601;28;20453;-77
2022/03/19 04:13:19;;;;;;;29.92;16.60;;;3.90;99.90;;;;;;5054538;28;20032;-77
2022/03/19 04:15:45;;;;;;;25.95;15.10;;;3.90;99.90;;;;;;5054316;28;20036;-77
2022/03/19 04:18:13;;;;;;;28.02;14.90;;;3.90;99.90;;;;;;5036521;28;20102;-77
2022/03/19 04:20:39;;;;;;;28.10;16.13;;;3.80;99.90;;;;;;5054280;28;20042;-78
2022/03/19 04:23:05;;;;;;;24.00;15.20;;;3.80;99.90;;;;;;5036417;28;20373;-78
2022/03/19 04:25:30;;;;;;;27.52;15.77;;;3.80;99.90;;;;;;5036699;28;20032;-77
2022/03/19 04:27:56;;;;;;;23.38;16.23;;;3.70;99.90;;;;;;5054540;28;20031;-78
2022/03/19 04:30:26;;;;;;;20.55;14.32;;;3.70;99.90;;;;;;5054440;28;20032;-78
2022/03/19 04:32:58;;;;;;;26.75;15.27;;;3.70;99.90;;;;;;5036475;28;20063;-77
2022/03/19 04:38:11;;;;;;;27.70;15.05;;;3.70;99.90;;;;;;5054366;28;20150;-77
2022/03/19 04:40:38;;;;;;;27.67;15.25;;;3.70;99.90;;;;;;5054150;28;20438;-76
2022/03/19 04:43:04;;;;;;;29.05;14.48;;;3.60;99.90;;;;;;5037076;28;20028;-76
2022/03/19 04:45:30;;;;;;;29.77;15.35;;;3.70;99.90;;;;;;5035127;28;20029;-76
2022/03/19 04:47:56;;;;;;;27.70;15.93;;;3.70;99.90;;;;;;5015997;28;20120;-77
2022/03/19 04:50:21;;;;;;;29.50;14.88;;;3.80;99.90;;;;;;5046784;28;20108;-78
2022/03/19 04:52:48;;;;;;;27.63;14.95;;;3.80;99.90;;;;;;5036421;28;20465;-75
2022/03/19 04:55:14;;;;;;;25.50;15.43;;;3.80;99.90;;;;;;5054839;28;20396;-77
2022/03/19 04:57:39;;;;;;;26.35;14.57;;;3.80;99.90;;;;;;5054033;28;20079;-78
2022/03/19 05:00:08;;;;;;;25.35;14.98;;;3.80;99.90;;;;;;5047544;28;20021;-77
2022/03/19 05:02:34;;;;;;;25.23;15.07;;;3.80;99.90;;;;;;5072158;28;20025;-78
2022/03/19 05:05:00;;;;;;;23.40;14.95;;;3.80;99.90;;;;;;5064203;28;20024;-76
2022/03/19 05:07:27;;;;;;;28.10;14.95;;;3.80;99.90;;;;;;5053978;28;20404;-78
2022/03/19 05:12:39;;;;;;;21.58;14.50;;;3.80;99.90;;;;;;5053523;28;20157;-78
2022/03/19 05:15:06;;;;;;;26.15;15.52;;;3.80;99.90;;;;;;5053339;28;20526;-76
2022/03/19 05:17:32;;;;;;;26.13;15.40;;;3.80;99.90;;;;;;5053154;28;20021;-76
2022/03/19 05:19:57;;;;;;;24.50;15.75;;;3.80;99.90;;;;;;5053353;28;20072;-76
2022/03/19 05:22:23;;;;;;;22.83;14.43;;;3.80;99.90;;;;;;5053470;28;20055;-76
2022/03/19 05:24:49;;;;;;;22.15;14.93;;;3.90;99.90;;;;;;5036607;28;20492;-76
2022/03/19 05:27:15;;;;;;;25.50;15.05;;;3.80;99.90;;;;;;5053618;28;20091;-76
2022/03/19 05:29:40;;;;;;;31.60;15.38;;;3.80;99.90;;;;;;5053155;28;20021;-77
2022/03/19 05:32:06;;;;;;;23.17;14.30;;;3.80;99.90;;;;;;5053427;28;20070;-76
2022/03/19 05:34:34;;;;;;;24.25;14.38;;;3.90;99.90;;;;;;5053258;28;20059;-77
2022/03/19 05:37:03;;;;;;;25.35;17.02;;;3.90;99.90;;;;;;5035205;28;20085;-76
2022/03/19 05:39:30;;;;;;;23.08;14.55;;;3.80;99.90;;;;;;5053062;28;20021;-77
2022/03/19 05:41:55;;;;;;;26.05;15.48;;;3.80;99.90;;;;;;5052911;28;20044;-75
2022/03/19 05:44:21;;;;;;;26.45;15.43;;;3.80;99.90;;;;;;5043510;28;20021;-76
2022/03/19 05:46:47;;;;;;;23.02;14.52;;;3.80;99.90;;;;;;5033061;28;20025;-77
2022/03/19 05:49:13;;;;;;;33.08;15.27;;;3.80;99.90;;;;;;5032733;28;20123;-76
2022/03/19 05:51:41;;;;;;;26.88;15.25;;;3.80;99.90;;;;;;5032909;28;20040;-76
2022/03/19 05:54:06;;;;;;;26.33;15.18;;;3.80;99.90;;;;;;5033660;28;20034;-77
2022/03/19 05:56:32;;;;;;;27.02;15.57;;;3.80;99.90;;;;;;5032515;28;20504;-76
2022/03/19 05:58:58;;;;;;;28.25;15.73;;;3.80;99.90;;;;;;5032706;28;20018;-75
2022/03/19 06:01:27;;;;;;;27.35;16.25;;;3.80;99.90;;;;;;5032712;28;20055;-76
2022/03/19 06:03:57;;;;;;;24.92;14.95;;;3.80;99.90;;;;;;5032648;28;20055;-76
2022/03/19 06:06:23;;;;;;;24.33;14.32;;;3.80;99.90;;;;;;5014912;28;20029;-76
2022/03/19 06:08:49;;;;;;;25.95;14.15;;;3.80;99.90;;;;;;5032681;28;20440;-78
2022/03/19 06:11:15;;;;;;;25.67;15.10;;;3.80;99.90;;;;;;5014959;28;20075;-77
2022/03/19 06:13:41;;;;;;;24.73;14.32;;;3.90;99.90;;;;;;5032634;28;20030;-77
2022/03/19 06:16:07;;;;;;;26.05;14.93;;;3.90;99.90;;;;;;5032724;28;20327;-76
2022/03/19 06:18:33;;;;;;;26.33;14.02;;;4.00;99.90;;;;;;5032509;28;20033;-76
2022/03/19 06:20:59;;;;;;;22.13;12.73;;;4.10;99.90;;;;;;5032573;28;20022;-75
2022/03/19 06:23:25;;;;;;;25.85;13.50;;;4.20;99.90;;;;;;5032567;28;20030;-76
2022/03/19 06:25:51;;;;;;;26.00;14.65;;;4.30;99.90;;;;;;5032209;28;20025;-76
2022/03/19 06:28:17;;;;;;;22.27;13.25;;;4.40;99.90;;;;;;5014661;28;20036;-77
2022/03/19 06:30:43;;;;;;;25.65;13.00;;;4.50;99.90;;;;;;5032331;28;20100;-76
2022/03/19 06:33:09;;;;;;;24.90;13.20;;;4.70;99.90;;;;;;5032240;28;20125;-77
2022/03/19 06:38:23;;;;;;;22.50;12.77;;;4.90;99.90;;;;;;5032345;28;20083;-75
2022/03/19 06:40:49;;;;;;;23.13;12.68;;;5.10;99.90;;;;;;5032305;28;20033;-77
2022/03/19 06:43:14;;;;;;;24.15;12.35;;;5.20;99.90;;;;;;5032444;28;20092;-76
2022/03/19 06:45:40;;;;;;;25.90;11.52;;;5.30;99.90;;;;;;5033877;28;20024;-78
2022/03/19 06:48:06;;;;;;;24.13;10.75;;;5.40;99.90;;;;;;5052606;28;20020;-76
2022/03/19 06:50:31;;;;;;;18.70;11.27;;;5.60;99.90;;;;;;5051754;28;20491;-76
2022/03/19 06:52:57;;;;;;;14.48;9.75;;;5.70;99.90;;;;;;5051991;28;20037;-77
2022/03/19 06:55:23;;;;;;;25.42;10.02;;;5.80;99.90;;;;;;5052199;28;20087;-77
2022/03/19 06:57:48;;;;;;;17.08;10.00;;;6.00;99.90;;;;;;5051966;28;20020;-77
2022/03/19 07:00:14;;;;;;;18.45;10.50;;;6.00;99.90;;;;;;5033972;28;20017;-77
2022/03/19 07:02:47;;;;;;;22.00;10.88;;;6.10;99.90;;;;;;5052081;28;20025;-76
2022/03/19 07:05:18;;;;;;;16.38;9.75;;;6.20;99.90;;;;;;5051942;28;20107;-76
2022/03/19 07:07:43;;;;;;;20.65;10.57;;;6.30;99.90;;;;;;5052008;28;20500;-76
2022/03/19 07:10:09;;;;;;;18.83;9.70;;;6.50;99.90;;;;;;5051683;28;20021;-77
2022/03/19 07:12:42;;;;;;;22.50;10.15;;;6.60;99.90;;;;;;5051964;28;20021;-77
2022/03/19 07:15:10;;;;;;;25.33;10.55;;;6.70;99.90;;;;;;5033582;28;20029;-77
2022/03/19 07:17:36;;;;;;;20.40;9.95;;;6.90;99.90;;;;;;5051674;28;20472;-77
2022/03/19 07:20:02;;;;;;;26.02;10.65;;;7.10;99.90;;;;;;5052238;28;20037;-77
2022/03/19 07:22:27;;;;;;;21.27;9.32;;;7.20;99.90;;;;;;5052085;28;20024;-77
2022/03/19 07:24:53;;;;;;;17.38;10.02;;;7.20;99.90;;;;;;5052092;28;20032;-76
2022/03/19 07:27:18;;;;;;;17.50;8.60;;;7.20;99.90;;;;;;5051603;28;20051;-76
2022/03/19 07:29:44;;;;;;;20.23;9.13;;;7.30;99.90;;;;;;5052011;28;20365;-76
2022/03/19 07:32:10;;;;;;;21.77;9.02;;;7.20;99.90;;;;;;5052052;28;20025;-76
2022/03/19 07:34:39;;;;;;;15.95;8.82;;;7.30;99.90;;;;;;5051769;28;20087;-78
2022/03/19 07:37:04;;;;;;;16.27;8.82;;;7.30;99.90;;;;;;5051961;28;20040;-76
2022/03/19 07:39:30;;;;;;;20.35;8.73;;;7.30;99.90;;;;;;5052260;28;20469;-77
2022/03/19 07:41:56;;;;;;;22.25;9.38;;;7.30;99.90;;;;;;5055366;28;20033;-78
2022/03/19 07:44:21;;;;;;;15.85;9.90;;;7.20;99.90;;;;;;5046980;28;20491;-77
2022/03/19 07:46:47;;;;;;;14.65;8.95;;;7.40;99.90;;;;;;5036130;28;20488;-77
2022/03/19 07:49:12;;;;;;;18.35;9.05;;;7.70;99.90;;;;;;5018509;28;20041;-77
2022/03/19 07:51:39;;;;;;;18.25;8.85;;;7.90;99.90;;;;;;5018980;28;20025;-78
2022/03/19 07:54:04;;;;;;;18.85;9.25;;;7.90;99.90;;;;;;5036420;28;20029;-77
2022/03/19 07:56:30;;;;;;;17.08;8.18;;;8.00;99.90;;;;;;5036529;28;20107;-76
2022/03/19 07:58:55;;;;;;;19.52;8.75;;;8.00;99.90;;;;;;5036281;28;20457;-76
2022/03/19 08:01:21;;;;;;;21.20;8.60;;;8.00;99.90;;;;;;5035418;28;20025;-76
2022/03/19 08:03:47;;;;;;;15.98;8.07;;;7.90;99.90;;;;;;5037935;28;20151;-79
2022/03/19 08:06:13;;;;;;;21.90;8.88;;;8.10;99.90;;;;;;5038636;28;20029;-76
2022/03/19 08:08:39;;;;;;;24.10;9.43;;;8.50;99.90;;;;;;5056399;28;20033;-75
2022/03/19 08:11:05;;;;;;;14.48;7.50;;;8.70;99.90;;;;;;5038022;28;20396;-77
2022/03/19 08:13:31;;;;;;;20.02;8.20;;;9.00;99.90;;;;;;5055847;28;20460;-76
2022/03/19 08:15:56;;;;;;;13.63;7.10;;;9.30;99.90;;;;;;5056262;28;20081;-77
2022/03/19 08:18:23;;;;;;;16.00;7.35;;;9.60;99.90;;;;;;5055919;28;20025;-77
2022/03/19 08:20:49;;;;;;;17.70;7.25;;;9.40;99.90;;;;;;5037771;28;20111;-76
2022/03/19 08:23:19;;;;;;;18.05;7.38;;;9.40;99.90;;;;;;5055700;28;20519;-78
2022/03/19 08:25:45;;;;;;;15.95;7.10;;;9.60;99.90;;;;;;5055262;28;20025;-79
2022/03/19 08:28:10;;;;;;;15.18;6.75;;;9.60;99.90;;;;;;5055537;28;20032;-77
2022/03/19 08:30:36;;;;;;;17.75;7.32;;;9.70;99.90;;;;;;5055392;28;20070;-77
2022/03/19 08:33:02;;;;;;;12.93;6.97;;;10.00;99.90;;;;;;5054921;28;20033;-75
2022/03/19 08:35:28;;;;;;;15.10;7.45;;;10.20;99.90;;;;;;5055443;28;20507;-79
2022/03/19 08:40:15;;;;;;;17.45;6.78;;;10.30;99.90;;;;;;5038551;28;20562;-77
2022/03/19 08:40:39;;;;;;;14.48;6.50;;;10.40;99.90;;;;;;5068457;28;20009;-77
2022/03/19 08:43:05;;;;;;;16.25;6.78;;;10.40;99.90;;;;;;5052884;28;20032;-77
2022/03/19 08:45:30;;;;;;;10.10;6.45;;;10.50;99.90;;;;;;5049308;28;20029;-76
2022/03/19 08:47:56;;;;;;;13.38;6.03;;;10.70;99.90;;;;;;5046762;28;20472;-77
2022/03/19 08:50:24;;;;;;;15.98;6.70;;;11.00;99.90;;;;;;5034934;28;20048;-77
2022/03/19 08:52:49;;;;;;;11.93;5.90;;;10.80;99.90;;;;;;5033294;28;20563;-76
2022/03/19 08:55:15;;;;;;;14.38;6.47;;;11.00;99.90;;;;;;5034811;28;20021;-76
2022/03/19 08:57:40;;;;;;;13.07;5.45;;;11.00;99.90;;;;;;5034832;28;20057;-76
2022/03/19 09:00:07;;;;;;;11.32;5.47;;;10.90;99.90;;;;;;5016879;28;20030;-77
2022/03/19 09:02:34;;;;;;;13.43;5.45;;;11.10;99.90;;;;;;5035054;28;20018;-78
2022/03/19 09:05:00;;;;;;;14.80;5.80;;;11.50;99.90;;;;;;5035293;28;20067;-78
2022/03/19 09:07:26;;;;;;;11.23;5.65;;;11.60;99.90;;;;;;5034820;28;20057;-76
2022/03/19 09:09:55;;;;;;;15.80;6.13;;;11.40;99.90;;;;;;5034150;28;20123;-77
2022/03/19 09:12:25;;;;;;;12.50;4.95;;;11.50;99.90;;;;;;5034689;28;20106;-76
2022/03/19 09:14:51;;;;;;;13.60;5.30;;;11.90;99.90;;;;;;5035208;28;20404;-76
2022/03/19 09:17:16;;;;;;;10.43;4.93;;;12.00;99.60;;;;;;5035967;28;20096;-78
2022/03/19 09:19:42;;;;;;;10.80;5.00;;;12.20;99.10;;;;;;5018165;28;20049;-77
2022/03/19 09:22:07;;;;;;;11.43;5.53;;;12.00;96.00;;;;;;5035281;28;20022;-77
2022/03/19 09:24:33;;;;;;;11.40;4.85;;;11.80;96.30;;;;;;5035808;28;20104;-77
2022/03/19 09:27:00;;;;;;;13.05;5.28;;;11.80;96.10;;;;;;5036208;28;20402;-75
2022/03/19 09:29:26;;;;;;;12.18;5.55;;;12.00;95.70;;;;;;5034873;28;20469;-77
2022/03/19 09:31:52;;;;;;;15.48;5.15;;;12.00;95.00;;;;;;5034991;28;20029;-78
2022/03/19 09:34:18;;;;;;;12.55;5.45;;;12.00;93.30;;;;;;5015942;28;20037;-76
2022/03/19 09:36:46;;;;;;;14.18;5.15;;;12.30;93.90;;;;;;5035061;28;20021;-76
2022/03/19 09:39:16;;;;;;;12.90;5.32;;;12.50;91.20;;;;;;5034409;28;20025;-77
2022/03/19 09:41:42;;;;;;;9.75;4.60;;;12.60;84.70;;;;;;5033942;28;20025;-76
2022/03/19 09:44:11;;;;;;;11.50;4.22;;;12.40;83.70;;;;;;5024061;28;20112;-78
2022/03/19 09:46:37;;;;;;;11.32;4.53;;;12.10;87.80;;;;;;5054361;28;20170;-77
2022/03/19 09:49:03;;;;;;;11.65;4.93;;;12.20;83.50;;;;;;5036273;28;20032;-76
2022/03/19 09:51:32;;;;;;;10.75;4.88;;;12.10;81.30;;;;;;5054365;28;20025;-77
2022/03/19 09:53:57;;;;;;;11.45;4.78;;;12.10;82.50;;;;;;5054050;28;20025;-77
2022/03/19 09:56:23;;;;;;;9.50;4.28;;;11.80;79.90;;;;;;5054907;28;20048;-77
2022/03/19 09:58:49;;;;;;;10.27;4.32;;;12.10;79.00;;;;;;5054155;28;20086;-76
2022/03/19 10:01:18;;;;;;;6.78;3.03;;;12.30;78.00;;;;;;5036553;28;20388;-76
2022/03/19 10:03:45;;;;;;;9.15;3.30;;;12.40;71.70;;;;;;5056546;28;20028;-77
2022/03/19 10:09:00;;;;;;;9.30;3.50;;;12.20;67.50;;;;;;5061338;28;20078;-76
2022/03/19 10:11:34;;;;;;;9.02;3.13;;;12.20;68.00;;;;;;5059740;28;20063;-78
2022/03/19 10:14:04;;;;;;;7.10;3.03;;;12.60;66.50;;;;;;5056319;28;20052;-77
2022/03/19 10:16:33;;;;;;;9.25;3.50;;;12.50;63.60;;;;;;5058723;28;20115;-77
2022/03/19 10:19:00;;;;;;;6.72;2.10;;;12.80;64.30;;;;;;5041207;28;20029;-78
2022/03/19 10:21:28;;;;;;;5.95;2.33;;;13.20;61.80;;;;;;5042228;28;20025;-79
2022/03/19 10:23:59;;;;;;;8.13;2.83;;;13.10;59.60;;;;;;5059455;28;20028;-77
2022/03/19 10:26:27;;;;;;;5.72;2.75;;;13.10;59.70;;;;;;5059718;28;20396;-78
2022/03/19 10:29:11;;;;;;;6.75;2.40;;;13.20;60.10;;;;;;5042363;28;20531;-76
2022/03/19 10:31:39;;;;;;;6.55;2.10;;;13.10;60.10;;;;;;5053076;28;20036;-76
2022/03/19 10:34:07;;;;;;;6.15;2.15;;;13.20;57.60;;;;;;5053423;28;20110;-76
2022/03/19 10:36:41;;;;;;;8.80;2.13;;;13.00;57.60;;;;;;5037021;28;20032;-77
2022/03/19 10:39:31;;;;;;;5.07;2.10;;;13.10;55.00;;;;;;5052970;28;20021;-78
2022/03/19 10:41:58;;;;;;;4.47;1.73;;;13.10;55.50;;;;;;5034665;28;20100;-77
2022/03/19 10:44:26;;;;;;;8.23;3.20;;;13.50;53.60;;;;;;5042516;28;20500;-75
2022/03/19 10:47:00;;;;;;;7.50;2.15;;;13.60;54.70;;;;;;5032717;28;20032;-76
2022/03/19 10:49:29;;;;;;;7.50;1.90;;;13.60;53.70;;;;;;5032378;28;20527;-78
2022/03/19 10:51:57;;;;;;;3.67;1.80;;;13.50;52.30;;;;;;5032992;28;20048;-77
2022/03/19 10:54:24;;;;;;;6.00;2.00;;;13.30;51.80;;;;;;5014273;28;20484;-77
2022/03/19 10:56:52;;;;;;;7.10;1.70;;;13.30;52.70;;;;;;5032250;28;20049;-77
2022/03/19 10:59:18;;;;;;;8.35;1.80;;;13.30;52.80;;;;;;5032646;28;20032;-78
2022/03/19 11:01:44;;;;;;;4.90;1.73;;;13.40;53.20;;;;;;5032283;28;20029;-76
2022/03/19 11:04:11;;;;;;;5.32;1.90;;;13.50;52.90;;;;;;5032433;28;20058;-76
2022/03/19 11:06:43;;;;;;;4.95;1.63;;;13.50;52.30;;;;;;5014317;28;20037;-75
2022/03/19 11:09:11;;;;;;;4.97;1.77;;;13.50;53.40;;;;;;5032047;28;20112;-75
2022/03/19 11:11:48;;;;;;;6.75;1.67;;;13.40;52.90;;;;;;5032311;28;20072;-77
2022/03/19 11:14:23;;;;;;;6.30;1.80;;;13.10;52.30;;;;;;5032608;28;20477;-77
2022/03/19 11:17:24;;;;;;;6.15;2.10;;;13.30;54.30;;;;;;5031335;28;20014;-77
2022/03/19 11:19:52;;;;;;;4.28;1.67;;;13.40;54.50;;;;;;5031837;28;20022;-76
2022/03/19 11:22:18;;;;;;;10.18;1.73;;;13.50;54.00;;;;;;5014603;28;20105;-76
2022/03/19 11:24:53;;;;;;;7.32;2.03;;;13.60;53.40;;;;;;5032034;28;20049;-75
2022/03/19 11:27:20;;;;;;;5.18;2.08;;;13.80;54.60;;;;;;5032062;28;20022;-76
2022/03/19 11:29:46;;;;;;;5.65;1.98;;;13.70;52.60;;;;;;5014330;28;20033;-77
2022/03/19 11:32:24;;;;;;;6.00;2.13;;;13.80;53.10;;;;;;5014482;28;20417;-77
2022/03/19 11:34:56;;;;;;;5.57;1.98;;;13.80;53.90;;;;;;5032190;28;20094;-76
2022/03/19 11:37:22;;;;;;;6.88;1.58;;;14.10;51.60;;;;;;5032252;28;20021;-76
2022/03/19 11:40:12;;;;;;;5.85;1.65;;;14.00;50.40;;;;;;5031854;28;20036;-77
2022/03/19 11:42:54;;;;;;;5.97;1.50;;;13.90;51.50;;;;;;5014270;28;20041;-76
2022/03/19 11:45:20;;;;;;;2.65;1.15;;;13.70;51.90;;;;;;5049973;28;20029;-76
2022/03/19 11:47:45;;;;;;;5.55;2.13;;;13.60;50.50;;;;;;5052646;28;20464;-76
2022/03/19 11:50:18;;;;;;;8.20;2.00;;;13.60;51.30;;;;;;5051876;28;20042;-76
2022/03/19 11:52:46;;;;;;;4.75;1.70;;;13.50;50.80;;;;;;5053131;28;20021;-78
2022/03/19 11:55:13;;;;;;;4.97;1.92;;;13.50;51.60;;;;;;5053183;28;20052;-78
2022/03/19 11:57:56;;;;;;;6.70;1.95;;;13.60;51.60;;;;;;5052593;28;20021;-76
2022/03/19 12:00:27;;;;;;;5.82;1.80;;;13.80;52.20;;;;;;5052704;28;20045;-77
2022/03/19 12:03:12;;;;;;;5.22;1.80;;;14.10;52.10;;;;;;5034455;28;20025;-78
2022/03/19 12:05:46;;;;;;;5.63;2.00;;;14.00;51.70;;;;;;5052177;28;20388;-75
2022/03/19 12:08:22;;;;;;;5.97;1.73;;;14.20;50.50;;;;;;5035457;28;20512;-75
2022/03/19 12:11:13;;;;;;;3.30;1.58;;;13.90;50.70;;;;;;5053729;28;20021;-76
2022/03/19 12:13:42;;;;;;;5.07;1.63;;;13.80;51.00;;;;;;5053083;28;20489;-76
2022/03/19 12:16:08;;;;;;;5.20;1.77;;;13.60;49.70;;;;;;5052923;22;20115;-77
2022/03/19 12:18:42;;;;;;;5.47;1.92;;;13.60;51.00;;;;;;5032572;28;20025;-77
2022/03/19 12:21:10;;;;;;;6.10;2.10;;;13.90;51.50;;;;;;5034477;28;20105;-79
2022/03/19 12:24:09;;;;;;;5.20;1.50;;;14.30;51.50;;;;;;5032640;28;20492;-79
2022/03/19 12:26:41;;;;;;;3.60;1.80;;;14.40;49.80;;;;;;5035499;28;20095;-77
2022/03/19 12:29:09;;;;;;;3.53;1.55;;;14.60;49.90;;;;;;5040086;28;20026;-76
2022/03/19 12:31:45;;;;;;;6.60;1.90;;;14.40;49.00;;;;;;5039628;28;20056;-78
2022/03/19 12:34:30;;;;;;;;;;;14.10;48.80;;;;;;5039174;28;20034;-76
2022/03/19 12:37:01;;;;;;;4.53;1.38;;;13.80;48.30;;;;;;5021900;28;19951;-77
2022/03/19 12:39:27;;;;;;;3.50;1.60;;;13.80;47.50;;;;;;5038270;28;20025;-80
2022/03/19 12:41:53;;;;;;;3.05;1.50;;;13.70;48.40;;;;;;5038528;28;20017;-77
2022/03/19 12:44:25;;;;;;;4.85;1.75;;;13.60;48.50;;;;;;5048172;28;20024;-76
2022/03/19 12:47:00;;;;;;;3.25;1.05;;;13.70;49.10;;;;;;5040526;28;20082;-75
2022/03/19 12:49:27;;;;;;;3.15;1.40;;;14.10;47.20;;;;;;5059374;28;20059;-76
2022/03/19 12:51:54;;;;;;;3.53;1.38;;;14.00;47.80;;;;;;5041202;28;20029;-78
2022/03/19 12:54:30;;;;;;;2.72;1.25;;;14.00;46.40;;;;;;5038928;28;20065;-77
2022/03/19 12:57:10;;;;;;;3.80;1.63;;;14.10;45.60;;;;;;5038015;28;20029;-76